Time;durP1;ratioP1;P1;durP2;ratioP2;P2;SDS_P1;SDS_P2;PMS_P1;PMS_P2;Temp;Humidity;BMP_temperature;BMP_pressure;BME280_temperature;BME280_humidity;BME280_pressure;Samples;Min_cycle;Max_cycle;Signal;HPM_P1;HPM_P2
2022/03/24 00:01:48;;;;;;;10.32;7.93;;;20.50;47.80;;;;;;5110289;28;20518;-77
2022/03/24 00:04:14;;;;;;;9.75;8.18;;;20.50;47.80;;;;;;5092179;28;20046;-75
2022/03/24 00:06:40;;;;;;;12.05;8.00;;;20.50;47.80;;;;;;5108971;28;20043;-75
2022/03/24 00:09:06;;;;;;;12.75;7.90;;;20.50;47.80;;;;;;5108229;28;20051;-75
2022/03/24 00:11:32;;;;;;;12.13;7.53;;;20.40;47.70;;;;;;5111201;28;20047;-77
2022/03/24 00:13:58;;;;;;;11.15;7.40;;;20.40;47.70;;;;;;5092429;28;20047;-77
2022/03/24 00:16:24;;;;;;;13.00;7.50;;;20.40;47.70;;;;;;5111745;28;20080;-74
2022/03/24 00:18:50;;;;;;;10.90;7.13;;;20.40;47.80;;;;;;5093636;28;20051;-75
2022/03/24 00:21:16;;;;;;;9.68;7.38;;;20.40;47.80;;;;;;5111604;28;20126;-76
2022/03/24 04:08:56;;;;;;;7.65;5.80;;;19.70;47.40;;;;;;5105988;27;20089;-77
2022/03/24 04:11:22;;;;;;;9.65;6.75;;;19.70;47.10;;;;;;5095093;27;20043;-74
2022/03/24 04:13:48;;;;;;;9.18;6.80;;;19.70;46.50;;;;;;5091793;28;20062;-74
2022/03/24 04:16:14;;;;;;;9.18;6.60;;;19.70;47.20;;;;;;5093659;28;20387;-74
2022/03/24 04:18:40;;;;;;;8.60;7.10;;;19.70;47.10;;;;;;5110796;28;20051;-75
2022/03/24 04:21:07;;;;;;;7.00;6.30;;;19.70;47.20;;;;;;5100494;28;20055;-74
2022/03/24 04:23:34;;;;;;;9.02;6.75;;;19.70;47.10;;;;;;5076211;28;20114;-76
2022/03/24 04:26:00;;;;;;;7.15;6.40;;;19.70;47.10;;;;;;5111548;28;20394;-78
2022/03/24 04:28:26;;;;;;;8.75;6.43;;;19.70;47.10;;;;;;5092270;28;20046;-77
2022/03/24 04:30:52;;;;;;;7.95;6.38;;;19.70;47.20;;;;;;5093441;28;20070;-75
2022/03/24 04:33:18;;;;;;;8.63;6.75;;;19.70;47.10;;;;;;5111189;28;20122;-76
2022/03/24 04:35:44;;;;;;;8.30;6.93;;;19.70;47.20;;;;;;5111490;28;20114;-75
2022/03/24 04:38:10;;;;;;;8.98;6.63;;;19.70;47.10;;;;;;5095482;27;20488;-77
2022/03/24 04:40:36;;;;;;;7.53;6.50;;;19.70;47.10;;;;;;5093125;28;20047;-75
2022/03/24 04:43:01;;;;;;;8.27;6.60;;;19.70;47.10;;;;;;5092465;28;20379;-77
2022/03/24 04:45:29;;;;;;;8.30;6.63;;;19.70;47.10;;;;;;5110745;28;20120;-75
2022/03/24 04:47:56;;;;;;;7.35;6.15;;;19.70;47.10;;;;;;5111435;28;20043;-76
2022/03/24 04:50:24;;;;;;;7.93;6.57;;;19.70;47.10;;;;;;5093214;28;20389;-74
2022/03/24 04:52:49;;;;;;;8.50;6.60;;;19.70;47.10;;;;;;5111759;28;20096;-75
2022/03/24 04:55:15;;;;;;;8.07;6.38;;;19.70;47.10;;;;;;5112813;27;20436;-75
2022/03/24 04:57:42;;;;;;;9.07;6.63;;;19.60;47.10;;;;;;5111066;28;20039;-78
2022/03/24 05:00:09;;;;;;;8.77;6.72;;;19.60;47.10;;;;;;5093011;28;20414;-77
2022/03/24 05:02:35;;;;;;;7.53;6.68;;;19.60;47.10;;;;;;5092642;28;20540;-76
2022/03/24 05:05:01;;;;;;;7.47;6.30;;;19.60;47.10;;;;;;5092245;28;20097;-74
2022/03/24 05:07:27;;;;;;;8.45;6.60;;;19.60;47.10;;;;;;5111032;28;20040;-75
2022/03/24 05:09:54;;;;;;;9.38;6.65;;;19.60;47.10;;;;;;5088067;28;20040;-76
2022/03/24 05:12:20;;;;;;;8.97;6.80;;;19.60;47.10;;;;;;5089550;28;20051;-75
2022/03/24 05:14:46;;;;;;;8.45;6.90;;;19.60;47.10;;;;;;5122585;27;20860;-75
2022/03/24 05:17:13;;;;;;;9.00;6.40;;;19.60;47.10;;;;;;5089167;28;20042;-76
2022/03/24 05:19:44;;;;;;;8.48;6.85;;;19.60;47.10;;;;;;5089959;28;20040;-76
2022/03/24 05:22:10;;;;;;;8.32;6.93;;;19.60;47.10;;;;;;5072073;28;20491;-76
2022/03/24 05:24:38;;;;;;;7.55;6.55;;;19.60;47.10;;;;;;5089934;28;20514;-75
2022/03/24 05:27:07;;;;;;;9.52;6.40;;;19.60;47.10;;;;;;5085659;28;20044;-76
2022/03/24 05:29:34;;;;;;;8.73;6.80;;;19.50;47.00;;;;;;5070934;28;20505;-76
2022/03/24 05:32:00;;;;;;;7.75;6.70;;;19.60;47.10;;;;;;5088456;28;20052;-75
2022/03/24 05:34:25;;;;;;;9.98;6.78;;;19.60;47.10;;;;;;5090118;28;20119;-76
2022/03/24 05:36:51;;;;;;;10.25;7.05;;;19.60;47.10;;;;;;5088254;28;20484;-75
2022/03/24 05:39:18;;;;;;;11.38;7.45;;;19.50;47.00;;;;;;5094927;28;20027;-76
2022/03/24 05:41:43;;;;;;;10.00;7.32;;;19.60;47.10;;;;;;5099421;28;20051;-76
2022/03/24 05:44:09;;;;;;;9.15;6.93;;;19.50;47.00;;;;;;5090510;28;20501;-74
2022/03/24 05:46:39;;;;;;;8.43;6.93;;;19.60;47.10;;;;;;5093238;28;20079;-76
2022/03/24 05:49:06;;;;;;;8.52;6.70;;;19.60;47.10;;;;;;5092519;28;20479;-76
2022/03/24 05:51:33;;;;;;;8.63;6.60;;;19.60;47.10;;;;;;5093043;28;20044;-76
2022/03/24 05:53:59;;;;;;;7.13;6.43;;;19.60;47.10;;;;;;5092372;28;20035;-76
2022/03/24 05:56:25;;;;;;;8.30;6.78;;;19.60;47.10;;;;;;5092530;28;20050;-74
2022/03/24 05:58:51;;;;;;;8.30;6.30;;;19.60;47.10;;;;;;5091037;28;20039;-77
2022/03/24 06:01:17;;;;;;;8.38;6.80;;;19.60;47.10;;;;;;5096194;28;20479;-73
2022/03/24 06:03:45;;;;;;;10.82;6.28;;;19.60;47.10;;;;;;5093412;28;20040;-76
2022/03/24 06:06:12;;;;;;;8.85;6.68;;;19.60;47.00;;;;;;5094119;28;20047;-76
2022/03/24 06:08:42;;;;;;;7.90;6.60;;;19.60;47.00;;;;;;5109477;28;20483;-76
2022/03/24 06:11:12;;;;;;;9.00;7.03;;;19.60;47.00;;;;;;5092324;28;20192;-75
2022/03/24 06:13:40;;;;;;;7.90;6.50;;;19.60;47.00;;;;;;5092635;28;20039;-76
2022/03/24 06:16:06;;;;;;;9.32;6.20;;;19.60;47.00;;;;;;5091435;28;20044;-76
2022/03/24 06:18:32;;;;;;;8.50;6.50;;;19.60;47.80;;;;;;5088548;28;20539;-76
2022/03/24 06:21:02;;;;;;;6.63;5.93;;;19.50;47.00;;;;;;5092276;28;20044;-75
2022/03/24 06:23:28;;;;;;;10.05;6.78;;;19.60;47.10;;;;;;5093221;28;20180;-75
2022/03/24 06:25:53;;;;;;;9.52;6.85;;;19.60;47.10;;;;;;5090140;28;20123;-74
2022/03/24 06:28:19;;;;;;;6.97;6.10;;;19.60;47.10;;;;;;5092624;28;20071;-75
2022/03/24 06:30:45;;;;;;;9.13;6.57;;;19.60;47.10;;;;;;5089750;28;20081;-75
2022/03/24 06:33:11;;;;;;;8.00;6.78;;;19.60;47.10;;;;;;5091377;28;20032;-76
2022/03/24 06:35:37;;;;;;;8.52;6.53;;;19.60;47.10;;;;;;5124970;27;20082;-75
2022/03/24 06:38:03;;;;;;;7.75;6.18;;;19.60;47.10;;;;;;5074359;28;20039;-75
2022/03/24 06:40:29;;;;;;;8.25;6.40;;;19.60;47.10;;;;;;5091956;28;20078;-76
2022/03/24 06:42:55;;;;;;;8.23;6.68;;;19.60;47.10;;;;;;5091742;28;20558;-74
2022/03/24 06:45:21;;;;;;;11.25;6.82;;;19.60;47.10;;;;;;5091525;28;20055;-75
2022/03/24 06:47:46;;;;;;;8.50;6.28;;;19.70;47.10;;;;;;5093404;28;20032;-75
2022/03/24 06:50:13;;;;;;;7.50;6.53;;;19.60;47.10;;;;;;5092665;28;20419;-74
2022/03/24 06:52:40;;;;;;;8.00;6.30;;;19.70;47.20;;;;;;5091755;28;20048;-76
2022/03/24 06:55:06;;;;;;;7.72;6.50;;;19.70;47.30;;;;;;5092486;28;20048;-73
2022/03/24 06:57:32;;;;;;;8.98;6.50;;;19.70;47.40;;;;;;5098018;28;20023;-75
2022/03/24 06:59:58;;;;;;;9.63;6.38;;;19.70;47.40;;;;;;5074701;28;20093;-76
2022/03/24 07:02:24;;;;;;;8.20;6.55;;;19.70;47.50;;;;;;5097156;28;20056;-76
2022/03/24 07:04:50;;;;;;;7.53;6.22;;;19.70;47.60;;;;;;5121324;27;20068;-76
2022/03/24 07:07:15;;;;;;;7.15;6.18;;;19.80;47.70;;;;;;5093321;28;20495;-76
2022/03/24 07:09:41;;;;;;;7.95;6.32;;;19.80;47.80;;;;;;5092789;28;20098;-74
2022/03/24 07:12:07;;;;;;;7.93;6.38;;;19.80;47.80;;;;;;5113424;28;20067;-75
2022/03/24 07:14:33;;;;;;;8.10;6.65;;;19.90;47.90;;;;;;5113036;28;20096;-77
2022/03/24 07:16:59;;;;;;;7.18;5.90;;;19.90;48.00;;;;;;5111836;28;20044;-75
2022/03/24 07:19:25;;;;;;;8.35;6.55;;;19.90;48.00;;;;;;5109999;28;20040;-71
2022/03/24 07:21:51;;;;;;;8.27;6.82;;;20.00;48.20;;;;;;5093421;28;20046;-75
2022/03/24 07:24:17;;;;;;;8.02;6.50;;;20.00;48.20;;;;;;5112749;28;20118;-74
2022/03/24 07:26:44;;;;;;;8.38;6.88;;;20.00;48.30;;;;;;5113792;28;20139;-75
2022/03/24 07:29:10;;;;;;;9.57;6.72;;;20.00;48.20;;;;;;5093141;28;20043;-73
2022/03/24 07:31:37;;;;;;;9.43;6.68;;;20.10;48.30;;;;;;5118895;27;20457;-73
2022/03/24 07:34:03;;;;;;;8.75;7.22;;;20.10;48.20;;;;;;5111854;28;20067;-73
2022/03/24 07:36:29;;;;;;;11.98;6.65;;;20.10;48.20;;;;;;5094502;28;20081;-75
2022/03/24 07:38:57;;;;;;;9.35;6.65;;;20.10;48.40;;;;;;5112004;28;20082;-74
2022/03/24 07:41:24;;;;;;;9.40;6.47;;;20.10;48.40;;;;;;5088593;28;20126;-73
2022/03/24 07:43:50;;;;;;;13.02;6.60;;;20.10;48.60;;;;;;5093021;28;20562;-74
2022/03/24 07:46:16;;;;;;;9.45;6.68;;;20.20;48.70;;;;;;5111050;28;20061;-73
2022/03/24 07:48:46;;;;;;;8.68;6.68;;;20.20;48.80;;;;;;5112340;28;20035;-74
2022/03/24 07:51:13;;;;;;;10.40;6.45;;;20.20;49.00;;;;;;5112363;28;20043;-75
2022/03/24 07:53:39;;;;;;;8.65;6.50;;;20.20;49.20;;;;;;5106776;28;20463;-74
2022/03/24 07:56:05;;;;;;;10.43;6.95;;;20.30;49.30;;;;;;5109224;28;20067;-74
2022/03/24 07:58:31;;;;;;;8.65;6.90;;;20.30;49.30;;;;;;5101738;28;20101;-75
2022/03/24 08:00:57;;;;;;;8.68;6.57;;;20.30;49.40;;;;;;5115071;27;20486;-73
2022/03/24 08:03:23;;;;;;;11.05;6.70;;;20.40;49.50;;;;;;5111915;27;20398;-75
2022/03/24 08:05:50;;;;;;;12.07;7.03;;;20.40;49.50;;;;;;5073720;28;20051;-75
2022/03/24 08:08:17;;;;;;;9.00;6.18;;;20.40;49.60;;;;;;5094520;28;20051;-74
2022/03/24 08:10:45;;;;;;;8.65;6.57;;;20.40;49.60;;;;;;5103226;28;20048;-74
2022/03/24 08:13:15;;;;;;;11.80;6.78;;;20.40;49.60;;;;;;5114244;28;20047;-74
2022/03/24 08:15:42;;;;;;;10.05;6.72;;;20.50;49.60;;;;;;5096807;28;20497;-75
2022/03/24 08:18:09;;;;;;;11.07;7.25;;;20.50;49.50;;;;;;5096381;28;20537;-73
2022/03/24 08:20:37;;;;;;;8.13;6.33;;;20.60;49.60;;;;;;5112452;28;20043;-71
2022/03/24 08:23:03;;;;;;;10.07;6.40;;;20.60;49.60;;;;;;5094386;28;20051;-74
2022/03/24 08:25:30;;;;;;;9.85;6.63;;;20.50;49.50;;;;;;5094069;28;20047;-74
2022/03/24 08:27:56;;;;;;;8.82;6.25;;;20.60;49.60;;;;;;5113001;28;20043;-73
2022/03/24 08:30:23;;;;;;;10.82;6.30;;;20.60;49.40;;;;;;5122764;27;20031;-74
2022/03/24 08:32:49;;;;;;;8.32;6.38;;;20.60;49.30;;;;;;5117693;27;20495;-75
2022/03/24 08:35:15;;;;;;;11.23;6.18;;;20.70;49.40;;;;;;5116456;28;20100;-76
2022/03/24 08:37:41;;;;;;;7.10;5.85;;;20.70;49.30;;;;;;5131899;27;20044;-76
2022/03/24 08:40:07;;;;;;;7.30;5.80;;;20.70;49.30;;;;;;5097503;28;20047;-75
2022/03/24 08:42:37;;;;;;;8.15;6.43;;;21.80;49.90;;;;;;5109949;28;20709;-76
2022/03/24 08:45:11;;;;;;;10.05;6.15;;;20.80;49.30;;;;;;5108578;28;20061;-74
2022/03/24 08:47:37;;;;;;;9.43;6.35;;;20.80;49.30;;;;;;5107575;28;20578;-74
2022/03/24 08:50:05;;;;;;;11.23;6.43;;;20.80;49.30;;;;;;5110168;28;20031;-74
2022/03/24 08:52:31;;;;;;;9.32;6.38;;;20.80;49.20;;;;;;5097287;28;20043;-74
2022/03/24 08:54:57;;;;;;;7.55;5.90;;;20.80;49.20;;;;;;5101251;28;20731;-72
2022/03/24 08:57:27;;;;;;;9.43;6.22;;;20.90;49.20;;;;;;5107822;28;20489;-73
2022/03/24 08:59:55;;;;;;;7.88;5.85;;;20.90;49.00;;;;;;5092119;28;20055;-74
2022/03/24 09:02:22;;;;;;;8.15;5.90;;;20.90;49.00;;;;;;5108886;27;20505;-74
2022/03/24 09:04:48;;;;;;;7.80;5.50;;;20.90;48.90;;;;;;5111675;28;20031;-73
2022/03/24 09:07:15;;;;;;;7.43;5.60;;;20.90;49.00;;;;;;5110722;28;20083;-73
2022/03/24 09:09:44;;;;;;;9.07;6.07;;;20.90;49.10;;;;;;5110580;28;20067;-73
2022/03/24 09:12:10;;;;;;;9.18;5.75;;;21.00;49.20;;;;;;5110572;28;20035;-73
2022/03/24 09:14:40;;;;;;;7.90;5.85;;;21.00;49.20;;;;;;5125473;27;20037;-73
2022/03/24 09:17:08;;;;;;;7.38;6.05;;;21.00;48.90;;;;;;5073935;28;20135;-72
2022/03/24 09:19:34;;;;;;;10.30;6.13;;;21.00;48.90;;;;;;5070275;28;20069;-74
2022/03/24 09:22:03;;;;;;;7.88;6.22;;;21.00;48.80;;;;;;5091372;28;20240;-76
2022/03/24 09:24:29;;;;;;;8.63;5.65;;;21.00;48.70;;;;;;5108855;28;20039;-73
2022/03/24 09:26:55;;;;;;;8.95;6.18;;;21.00;48.50;;;;;;5108568;28;20505;-73
2022/03/24 09:29:22;;;;;;;8.82;5.85;;;21.00;48.70;;;;;;5109495;28;20032;-71
2022/03/24 09:31:48;;;;;;;8.15;6.20;;;21.10;48.90;;;;;;5108807;28;20075;-70
2022/03/24 09:34:15;;;;;;;10.30;6.22;;;21.10;48.80;;;;;;5109410;28;20569;-72
2022/03/24 09:36:40;;;;;;;13.68;6.40;;;21.10;48.80;;;;;;5109144;28;20552;-73
2022/03/24 09:39:09;;;;;;;12.65;7.60;;;21.10;48.60;;;;;;5107361;28;20032;-74
2022/03/24 09:41:36;;;;;;;10.88;7.13;;;21.20;48.40;;;;;;5109821;28;20054;-72
2022/03/24 09:44:06;;;;;;;9.80;6.53;;;21.20;48.30;;;;;;5109154;28;20085;-71
2022/03/24 09:46:32;;;;;;;10.38;6.57;;;21.20;48.20;;;;;;5103018;28;20035;-71
2022/03/24 09:48:59;;;;;;;11.55;7.10;;;21.10;48.20;;;;;;5089564;28;20048;-73
2022/03/24 09:51:27;;;;;;;11.35;7.40;;;21.20;48.10;;;;;;5093060;28;20043;-75
2022/03/24 09:53:53;;;;;;;9.50;7.25;;;21.20;48.10;;;;;;5110863;28;20115;-75
2022/03/24 09:56:19;;;;;;;10.90;7.00;;;21.20;48.00;;;;;;5109446;28;20035;-71
2022/03/24 09:58:48;;;;;;;11.98;7.80;;;21.20;48.00;;;;;;5108222;28;20562;-74
2022/03/24 10:01:15;;;;;;;10.50;7.28;;;21.20;47.90;;;;;;5090929;28;20039;-72
2022/03/24 10:04:02;;;;;;;11.82;7.40;;;21.20;48.00;;;;;;5109382;28;20035;-73
2022/03/24 10:06:28;;;;;;;8.80;7.13;;;21.20;47.90;;;;;;5109673;28;20112;-72
2022/03/24 10:08:54;;;;;;;10.77;7.43;;;21.20;47.90;;;;;;5073206;28;20874;-76
2022/03/24 10:11:24;;;;;;;11.40;7.45;;;21.30;47.90;;;;;;5109185;28;20052;-72
2022/03/24 10:13:56;;;;;;;10.18;7.25;;;21.30;47.80;;;;;;5106257;28;20090;-73
2022/03/24 10:16:40;;;;;;;8.88;6.75;;;21.30;47.80;;;;;;5091365;28;20070;-74
2022/03/24 10:19:16;;;;;;;12.70;7.55;;;21.20;47.70;;;;;;5108737;28;20036;-72
2022/03/24 10:21:48;;;;;;;11.52;7.20;;;21.30;47.70;;;;;;5107666;28;20563;-73
2022/03/24 10:24:22;;;;;;;10.95;7.60;;;21.30;47.60;;;;;;5091355;28;20036;-75
2022/03/24 10:26:55;;;;;;;12.45;7.00;;;21.30;48.40;;;;;;5109251;28;20039;-73
2022/03/24 10:29:22;;;;;;;10.20;7.32;;;21.30;47.50;;;;;;5107837;28;20516;-74
2022/03/24 10:32:00;;;;;;;9.45;7.13;;;21.30;47.50;;;;;;5110842;27;20063;-71
2022/03/24 10:34:36;;;;;;;10.30;7.03;;;21.30;47.50;;;;;;5101810;28;20075;-73
2022/03/24 10:37:07;;;;;;;11.13;6.93;;;21.30;47.40;;;;;;5112843;28;20089;-72
2022/03/24 10:39:37;;;;;;;9.35;6.88;;;21.40;47.50;;;;;;5114030;28;20039;-74
2022/03/24 10:42:11;;;;;;;10.55;7.10;;;21.40;47.50;;;;;;5101833;27;20062;-72
2022/03/24 10:44:58;;;;;;;11.27;7.35;;;21.40;47.50;;;;;;5099952;28;20482;-71
2022/03/24 10:47:44;;;;;;;11.13;7.10;;;21.40;47.50;;;;;;5109767;28;20044;-72
2022/03/24 10:50:28;;;;;;;10.35;7.00;;;21.40;47.30;;;;;;5094349;28;20066;-72
2022/03/24 10:52:59;;;;;;;14.13;7.30;;;21.50;47.40;;;;;;5110264;28;20038;-69
2022/03/24 10:55:47;;;;;;;13.13;7.90;;;21.50;48.00;;;;;;5110637;28;20055;-72
2022/03/24 10:58:38;;;;;;;10.85;7.22;;;21.50;47.40;;;;;;5110932;28;20031;-74
2022/03/24 11:01:08;;;;;;;19.58;7.95;;;21.50;47.20;;;;;;5112509;27;20130;-70
2022/03/24 11:03:34;;;;;;;11.90;7.78;;;21.60;47.40;;;;;;5112361;28;20046;-70
2022/03/24 11:06:08;;;;;;;11.40;7.00;;;21.60;47.30;;;;;;5111478;27;20035;-70
2022/03/24 11:08:34;;;;;;;13.63;7.25;;;21.60;47.20;;;;;;5094634;28;20040;-70
2022/03/24 11:11:04;;;;;;;12.15;8.00;;;21.60;47.30;;;;;;5109983;28;20058;-70
2022/03/24 11:13:49;;;;;;;15.40;8.38;;;21.50;47.00;;;;;;5092530;28;20093;-70
2022/03/24 11:16:17;;;;;;;12.68;8.18;;;21.60;46.80;;;;;;5106219;28;20040;-70
2022/03/24 11:18:44;;;;;;;17.17;8.57;;;21.60;46.80;;;;;;5111167;28;20032;-70
2022/03/24 11:21:33;;;;;;;16.33;8.27;;;21.50;46.70;;;;;;5112567;28;20073;-71
2022/03/24 11:23:59;;;;;;;12.55;8.18;;;21.50;46.50;;;;;;5099797;28;20045;-71
2022/03/24 11:26:26;;;;;;;11.10;8.05;;;21.50;46.50;;;;;;5112421;28;20032;-70
2022/03/24 11:28:57;;;;;;;13.65;7.63;;;21.50;46.40;;;;;;5110545;28;20043;-76
2022/03/24 11:31:24;;;;;;;14.95;8.10;;;21.50;46.30;;;;;;5093302;28;20040;-69
2022/03/24 11:33:52;;;;;;;14.38;7.72;;;21.60;46.40;;;;;;5093312;28;20040;-68
2022/03/24 11:36:21;;;;;;;18.95;9.00;;;21.60;46.50;;;;;;5111884;28;20043;-68
2022/03/24 11:38:49;;;;;;;16.00;7.85;;;21.60;46.50;;;;;;5111334;28;20040;-70
2022/03/24 11:41:21;;;;;;;13.45;7.88;;;21.60;46.70;;;;;;5112011;28;20059;-70
2022/03/24 11:43:53;;;;;;;13.95;7.85;;;21.60;46.60;;;;;;5110834;28;20036;-71
2022/03/24 11:46:33;;;;;;;12.95;8.40;;;21.60;46.70;;;;;;5112045;28;20039;-70
2022/03/24 11:49:14;;;;;;;12.05;7.70;;;21.60;46.70;;;;;;5093162;28;20035;-71
2022/03/24 11:51:40;;;;;;;13.85;8.18;;;21.70;46.80;;;;;;5111132;28;20082;-69
2022/03/24 11:54:07;;;;;;;12.68;7.55;;;21.70;46.80;;;;;;5111532;28;20064;-76
2022/03/24 11:56:34;;;;;;;15.93;8.40;;;21.60;46.70;;;;;;5103385;28;20078;-69
2022/03/24 11:59:00;;;;;;;16.70;7.80;;;21.70;46.50;;;;;;5103635;27;20067;-70
2022/03/24 12:01:33;;;;;;;17.98;7.63;;;21.70;46.30;;;;;;5094621;28;20094;-69
2022/03/24 12:04:10;;;;;;;15.65;8.27;;;21.70;46.10;;;;;;5104740;28;20053;-70
2022/03/24 12:06:42;;;;;;;14.13;8.40;;;21.80;46.10;;;;;;5092399;28;20043;-69
2022/03/24 12:09:18;;;;;;;11.70;7.35;;;21.80;46.00;;;;;;5110695;28;20039;-69
2022/03/24 12:11:46;;;;;;;14.07;8.32;;;21.80;45.80;;;;;;5110994;28;20131;-70
2022/03/24 12:14:19;;;;;;;15.07;8.57;;;21.80;45.80;;;;;;5109566;28;20027;-70
2022/03/24 12:16:53;;;;;;;13.80;8.57;;;21.80;45.60;;;;;;5091945;28;20048;-69
2022/03/24 12:19:47;;;;;;;15.50;8.50;;;21.90;45.50;;;;;;5105299;28;20554;-69
2022/03/24 12:22:32;;;;;;;12.70;8.05;;;21.90;45.40;;;;;;5092522;28;20052;-70
2022/03/24 12:25:00;;;;;;;12.63;8.02;;;21.90;45.20;;;;;;5110611;28;20098;-69
2022/03/24 12:27:33;;;;;;;;;;;22.00;45.20;;;;;;5111450;28;20228;-70
2022/03/24 12:30:17;;;;;;;11.98;7.82;;;22.00;45.20;;;;;;5108686;28;20305;-70
2022/03/24 12:32:59;;;;;;;13.10;7.95;;;22.10;45.10;;;;;;5083482;28;20397;-70
2022/03/24 12:36:02;;;;;;;11.85;7.25;;;22.20;45.00;;;;;;5110421;28;20035;-70
2022/03/24 12:38:34;;;;;;;14.00;7.55;;;22.90;44.40;;;;;;4991517;28;20390;-70
2022/03/24 12:41:05;;;;;;;13.75;7.78;;;23.50;43.30;;;;;;5094298;28;20048;-70
2022/03/24 12:43:49;;;;;;;11.65;7.95;;;24.00;42.20;;;;;;5088715;28;21023;-70
2022/03/24 12:46:38;;;;;;;13.55;8.10;;;24.50;41.20;;;;;;5091602;27;20136;-70
2022/03/24 12:49:16;;;;;;;11.73;7.20;;;25.00;40.20;;;;;;5110607;28;20050;-70
2022/03/24 12:52:01;;;;;;;9.98;7.47;;;25.40;39.50;;;;;;5092399;28;20043;-70
2022/03/24 12:54:29;;;;;;;11.45;7.38;;;26.10;38.40;;;;;;5109369;28;20398;-70
2022/03/24 12:57:21;;;;;;;13.13;7.47;;;26.20;38.30;;;;;;5110021;28;20457;-69
2022/03/24 12:59:47;;;;;;;14.20;7.47;;;26.50;37.50;;;;;;5108806;28;20039;-70
2022/03/24 13:02:13;;;;;;;12.27;7.22;;;26.80;37.10;;;;;;5096968;28;20043;-70
2022/03/24 13:04:39;;;;;;;9.43;6.43;;;27.00;36.60;;;;;;5110699;28;20376;-70
2022/03/24 13:07:06;;;;;;;11.88;6.80;;;27.30;36.30;;;;;;5110474;28;20110;-70
2022/03/24 13:09:31;;;;;;;10.98;7.13;;;27.40;35.70;;;;;;5091120;28;20092;-70
2022/03/24 13:12:06;;;;;;;9.00;6.38;;;27.60;35.40;;;;;;5109643;28;20044;-69
2022/03/24 13:14:45;;;;;;;10.05;6.25;;;27.70;34.90;;;;;;5095909;28;20066;-70
2022/03/24 13:17:14;;;;;;;9.10;6.65;;;27.90;34.60;;;;;;5090455;28;20479;-70
2022/03/24 13:19:42;;;;;;;10.95;6.82;;;27.90;34.60;;;;;;5109410;28;20085;-70
2022/03/24 13:22:19;;;;;;;9.93;7.07;;;28.00;34.20;;;;;;5091193;28;20513;-69
2022/03/24 13:25:01;;;;;;;7.75;6.22;;;28.10;34.00;;;;;;5109550;28;20114;-74
2022/03/24 13:27:33;;;;;;;9.63;6.50;;;28.20;33.70;;;;;;5077497;28;20054;-70
2022/03/24 13:30:03;;;;;;;9.65;6.47;;;28.20;33.60;;;;;;5108744;28;20046;-69
2022/03/24 13:32:29;;;;;;;9.15;6.93;;;28.30;33.50;;;;;;5092982;28;20054;-70
2022/03/24 13:35:01;;;;;;;11.98;6.72;;;28.30;33.50;;;;;;5102477;28;20043;-70
2022/03/24 13:37:36;;;;;;;10.02;6.72;;;28.30;33.20;;;;;;5106920;28;20127;-67
2022/03/24 13:40:04;;;;;;;8.70;6.53;;;28.40;33.10;;;;;;5106287;28;20518;-68
2022/03/24 13:42:30;;;;;;;11.75;6.40;;;28.50;33.00;;;;;;5107631;28;20036;-69
2022/03/24 13:44:56;;;;;;;9.23;6.43;;;28.50;32.80;;;;;;5106686;28;20047;-67
2022/03/24 13:47:25;;;;;;;12.80;6.97;;;28.50;32.70;;;;;;5105028;28;20084;-70
2022/03/24 13:50:05;;;;;;;20.67;7.15;;;28.50;32.60;;;;;;5105105;28;20023;-70
2022/03/24 13:52:43;;;;;;;11.80;6.80;;;28.20;32.80;;;;;;5109734;28;20050;-71
2022/03/24 13:55:14;;;;;;;14.13;6.65;;;27.80;33.30;;;;;;5090770;28;20039;-68
2022/03/24 13:57:48;;;;;;;14.63;8.27;;;27.50;33.50;;;;;;5091527;28;20074;-74
2022/03/24 14:00:43;;;;;;;10.65;7.40;;;27.40;34.00;;;;;;5109387;28;20040;-75
2022/03/24 14:03:20;;;;;;;19.83;8.82;;;26.90;34.60;;;;;;5093922;28;20501;-73
2022/03/24 14:05:52;;;;;;;16.17;8.40;;;;;;;;;;5094369;28;20085;-74
2022/03/24 14:08:25;;;;;;;12.38;8.13;;;25.80;35.50;;;;;;5113607;28;20046;-74
2022/03/24 14:10:54;;;;;;;12.82;8.18;;;25.70;36.50;;;;;;5112749;28;20067;-74
2022/03/24 14:13:22;;;;;;;12.32;8.35;;;25.40;37.00;;;;;;5094969;28;20048;-73
2022/03/24 14:15:48;;;;;;;17.67;8.68;;;25.20;37.40;;;;;;5113164;28;20035;-74
2022/03/24 14:18:22;;;;;;;10.38;8.00;;;25.00;37.70;;;;;;5113645;28;20108;-73
2022/03/24 14:20:49;;;;;;;13.07;8.65;;;24.80;38.10;;;;;;5113720;28;20406;-74
2022/03/24 14:23:33;;;;;;;14.70;8.27;;;24.70;38.40;;;;;;5095262;28;20048;-73
2022/03/24 14:26:16;;;;;;;13.98;8.60;;;24.60;38.70;;;;;;5104700;28;20028;-73
2022/03/24 14:28:44;;;;;;;16.00;8.70;;;24.50;39.00;;;;;;5102128;28;20028;-74
2022/03/24 14:31:13;;;;;;;16.95;8.77;;;24.40;39.20;;;;;;5097487;27;20066;-74
2022/03/24 14:34:00;;;;;;;11.68;8.45;;;24.30;39.40;;;;;;5123055;27;20187;-74
2022/03/24 14:36:26;;;;;;;14.57;9.30;;;24.20;39.70;;;;;;5113364;28;20028;-72
2022/03/24 14:39:19;;;;;;;13.90;8.48;;;24.20;39.80;;;;;;5112521;28;20043;-73
2022/03/24 14:41:50;;;;;;;11.48;8.50;;;24.10;40.00;;;;;;5094544;28;20047;-74
2022/03/24 14:44:18;;;;;;;12.80;8.38;;;24.10;40.20;;;;;;5112671;28;20043;-74
2022/03/24 14:46:45;;;;;;;12.38;8.18;;;24.00;40.30;;;;;;5112214;28;20080;-73
2022/03/24 14:49:12;;;;;;;15.75;8.63;;;23.90;40.50;;;;;;5112544;28;20371;-74
2022/03/24 14:51:40;;;;;;;13.03;8.63;;;23.90;40.70;;;;;;5113237;28;20095;-73
2022/03/24 14:54:07;;;;;;;11.90;8.68;;;23.90;41.10;;;;;;5113271;28;20032;-75
2022/03/24 14:56:33;;;;;;;12.27;8.48;;;23.80;41.80;;;;;;5094874;28;20062;-74
2022/03/24 14:58:59;;;;;;;12.25;8.93;;;23.80;41.10;;;;;;5112106;28;20044;-73
2022/03/24 15:01:25;;;;;;;12.63;8.07;;;23.70;41.20;;;;;;5112464;27;20036;-73
2022/03/24 15:03:51;;;;;;;15.38;8.80;;;23.70;41.30;;;;;;5113026;27;20044;-71
2022/03/24 15:06:17;;;;;;;15.82;10.77;;;23.60;41.50;;;;;;5111522;28;20042;-69
2022/03/24 15:08:44;;;;;;;20.25;11.85;;;23.60;41.40;;;;;;5107962;27;20040;-69
2022/03/24 15:11:11;;;;;;;18.58;11.20;;;23.60;41.00;;;;;;5109772;28;20047;-69
2022/03/24 15:13:37;;;;;;;15.13;11.40;;;23.50;40.90;;;;;;5111528;28;20043;-69
2022/03/24 15:16:02;;;;;;;18.23;11.95;;;23.40;40.80;;;;;;5093502;28;20057;-69
2022/03/24 15:18:33;;;;;;;18.00;10.55;;;23.40;40.70;;;;;;5109917;28;20043;-69
2022/03/24 15:21:00;;;;;;;21.20;11.93;;;23.40;40.90;;;;;;5110914;28;20436;-69
2022/03/24 15:23:26;;;;;;;16.15;12.18;;;23.30;40.80;;;;;;5112102;28;20039;-70
2022/03/24 15:25:53;;;;;;;21.42;12.38;;;23.30;40.80;;;;;;5112171;28;20529;-70
2022/03/24 15:28:20;;;;;;;16.80;12.33;;;23.20;40.70;;;;;;5111484;28;20835;-70
2022/03/24 15:30:46;;;;;;;19.35;11.27;;;23.20;40.90;;;;;;5092812;28;20084;-71
2022/03/24 15:33:13;;;;;;;18.00;13.18;;;23.20;41.10;;;;;;5112136;28;20035;-71
2022/03/24 15:35:39;;;;;;;18.00;12.95;;;23.20;41.20;;;;;;5112269;28;20511;-71
2022/03/24 15:38:06;;;;;;;16.73;12.57;;;23.10;41.20;;;;;;5092877;27;20032;-70
2022/03/24 15:40:32;;;;;;;20.67;13.95;;;23.10;41.30;;;;;;5111495;28;20040;-70
2022/03/24 15:42:58;;;;;;;20.45;13.43;;;23.00;41.30;;;;;;5111649;28;20105;-71
2022/03/24 15:45:24;;;;;;;19.65;13.07;;;23.00;41.30;;;;;;5111811;28;20043;-71
2022/03/24 15:47:49;;;;;;;20.58;13.15;;;23.00;41.40;;;;;;5111980;28;20051;-70
2022/03/24 15:50:17;;;;;;;20.00;12.73;;;22.90;41.30;;;;;;5109438;28;20047;-71
2022/03/24 15:52:44;;;;;;;22.27;13.68;;;22.90;41.40;;;;;;5106830;28;20047;-68
2022/03/24 15:55:12;;;;;;;21.38;13.70;;;22.80;41.50;;;;;;5111431;28;20123;-69
2022/03/24 15:57:39;;;;;;;21.73;13.80;;;22.80;41.50;;;;;;5111431;28;20074;-69
2022/03/24 16:00:10;;;;;;;19.05;14.13;;;22.70;41.40;;;;;;5091345;28;20395;-69
2022/03/24 16:02:37;;;;;;;19.80;13.65;;;22.70;41.40;;;;;;5117726;27;20486;-70
2022/03/24 16:05:02;;;;;;;19.30;13.45;;;22.70;41.40;;;;;;5111606;28;20075;-69
2022/03/24 16:07:28;;;;;;;17.75;13.32;;;22.60;41.40;;;;;;5111507;28;20039;-70
2022/03/24 16:09:54;;;;;;;19.75;12.50;;;22.60;41.50;;;;;;5109179;28;20091;-70
2022/03/24 16:12:19;;;;;;;17.98;12.07;;;22.60;41.50;;;;;;5094006;28;20052;-70
2022/03/24 16:14:45;;;;;;;21.15;12.38;;;22.50;41.60;;;;;;5110458;28;20043;-71
2022/03/24 16:17:11;;;;;;;18.92;12.52;;;22.50;41.70;;;;;;5110895;28;20035;-69
2022/03/24 16:19:37;;;;;;;21.27;11.75;;;22.50;41.60;;;;;;5091885;28;20059;-68
2022/03/24 16:22:03;;;;;;;21.90;11.95;;;22.40;41.60;;;;;;5111059;28;20066;-71
2022/03/24 16:24:29;;;;;;;18.55;11.90;;;22.40;41.60;;;;;;5104105;28;20035;-72
2022/03/24 16:26:56;;;;;;;21.52;11.80;;;22.40;41.70;;;;;;5111102;28;20036;-69
2022/03/24 16:29:22;;;;;;;18.33;11.23;;;22.40;41.70;;;;;;5108863;28;20085;-69
2022/03/24 16:31:48;;;;;;;18.30;12.43;;;22.30;41.60;;;;;;5113305;27;20039;-70
2022/03/24 16:34:14;;;;;;;20.85;12.02;;;22.30;41.60;;;;;;5110288;28;20039;-73
2022/03/24 16:36:40;;;;;;;20.40;12.50;;;22.30;41.60;;;;;;5111422;28;20055;-68